Time;durP1;ratioP1;P1;durP2;ratioP2;P2;SDS_P1;SDS_P2;PMS_P1;PMS_P2;Temp;Humidity;BMP_temperature;BMP_pressure;BME280_temperature;BME280_humidity;BME280_pressure;Samples;Min_cycle;Max_cycle;Signal;HPM_P1;HPM_P2
2023/07/23 00:01:52;;;;;;;17.50;5.57;;;;;;;23.96;45.19;100754.44;5052602;28;20025;-45
2023/07/23 00:04:18;;;;;;;15.10;6.00;;;;;;;23.72;46.99;100753.75;5052200;28;20029;-43
2023/07/23 00:06:45;;;;;;;15.73;6.05;;;;;;;23.35;47.85;100760.75;5052353;28;20114;-44
2023/07/23 00:09:11;;;;;;;18.60;6.18;;;;;;;23.38;48.38;100752.00;5046344;28;20504;-44
2023/07/23 00:11:37;;;;;;;18.58;5.70;;;;;;;23.12;48.70;100753.44;5041088;28;20028;-45
2023/07/23 00:14:03;;;;;;;19.42;6.63;;;;;;;22.77;49.87;100754.63;5044917;28;20022;-44
2023/07/23 00:16:30;;;;;;;22.55;6.60;;;;;;;21.99;51.76;100737.31;5047298;28;20024;-43
2023/07/23 00:18:56;;;;;;;17.05;6.35;;;;;;;21.84;52.54;100740.97;5051641;28;20040;-44
2023/07/23 00:21:22;;;;;;;17.45;6.10;;;;;;;21.74;52.71;100730.13;5052168;28;20528;-43
2023/07/23 00:23:48;;;;;;;17.98;6.43;;;;;;;21.67;52.85;100731.56;5051907;28;20032;-45
2023/07/23 00:26:15;;;;;;;17.48;6.07;;;;;;;21.48;53.61;100736.81;5049313;28;20565;-43
2023/07/23 00:28:41;;;;;;;21.23;6.82;;;;;;;21.22;53.84;100723.34;5051734;28;20029;-47
2023/07/23 00:31:07;;;;;;;20.10;7.25;;;;;;;21.32;54.15;100730.66;5051881;28;20479;-44
2023/07/23 00:33:33;;;;;;;15.93;6.10;;;;;;;21.43;52.84;100720.50;5052422;28;20486;-44
2023/07/23 00:36:00;;;;;;;19.13;6.75;;;;;;;21.23;52.97;100724.16;5052099;28;20025;-44
2023/07/23 00:38:26;;;;;;;21.40;6.28;;;;;;;21.45;53.84;100723.78;5051934;28;20033;-45
2023/07/23 00:40:56;;;;;;;16.05;6.18;;;;;;;21.39;53.18;100719.47;5052070;28;20430;-44
2023/07/23 00:43:23;;;;;;;17.13;6.70;;;;;;;21.25;53.39;100711.06;5051894;28;20079;-45
2023/07/23 00:45:49;;;;;;;18.42;7.28;;;;;;;21.38;53.17;100704.19;5052042;28;20391;-44
2023/07/23 00:48:16;;;;;;;17.60;6.72;;;;;;;21.45;53.97;100710.19;5051814;28;20033;-45
2023/07/23 00:50:42;;;;;;;14.57;6.80;;;;;;;21.55;53.57;100710.13;5049618;28;20033;-45
2023/07/23 00:53:09;;;;;;;22.83;6.75;;;;;;;21.50;53.18;100702.78;5043481;28;20395;-44
2023/07/23 00:55:35;;;;;;;18.60;6.20;;;;;;;21.56;52.40;100711.75;5051693;28;20025;-47
2023/07/23 00:58:01;;;;;;;14.57;6.53;;;;;;;21.41;52.65;100709.09;5048084;28;20040;-44
2023/07/23 01:00:28;;;;;;;24.83;6.25;;;;;;;21.23;53.42;100703.19;5033869;28;20026;-45
2023/07/23 01:02:54;;;;;;;18.15;6.13;;;;;;;21.45;53.25;100699.28;5034711;28;20108;-45
2023/07/23 01:05:21;;;;;;;17.88;5.78;;;;;;;21.50;52.29;100696.53;5051785;28;20028;-44
2023/07/23 01:07:49;;;;;;;20.27;6.07;;;;;;;21.53;51.85;100698.66;5051371;28;20052;-45
2023/07/23 01:10:17;;;;;;;15.32;5.75;;;;;;;21.18;54.14;100710.56;5051654;28;20801;-45
2023/07/23 01:12:44;;;;;;;16.48;5.90;;;;;;;21.18;54.82;100708.66;5049957;28;20032;-44
2023/07/23 01:15:11;;;;;;;18.85;6.20;;;;;;;20.94;55.30;100711.22;5052626;28;20047;-44
2023/07/23 01:17:39;;;;;;;20.27;6.90;;;;;;;20.53;56.83;100710.50;5055637;28;20059;-43
2023/07/23 01:20:06;;;;;;;18.35;6.13;;;;;;;20.63;56.34;100710.47;5050069;28;20036;-43
2023/07/23 01:22:37;;;;;;;13.40;6.68;;;;;;;20.72;56.43;100708.03;5040649;28;20021;-42
2023/07/23 01:25:04;;;;;;;16.13;6.03;;;;;;;20.75;57.04;100721.88;5034888;28;20037;-42
2023/07/23 01:27:31;;;;;;;19.25;6.63;;;;;;;20.52;57.18;100714.31;5035191;28;20116;-42
2023/07/23 01:29:57;;;;;;;18.48;6.95;;;;;;;20.54;57.65;100721.13;5036980;28;20406;-45
2023/07/23 01:32:23;;;;;;;16.92;6.63;;;;;;;20.87;56.86;100716.13;5053347;28;20449;-46
2023/07/23 01:34:51;;;;;;;19.58;6.65;;;;;;;20.82;56.10;100716.13;5052447;28;20110;-45
2023/07/23 01:37:18;;;;;;;16.77;6.65;;;;;;;20.60;56.88;100727.38;5052175;28;20032;-47
2023/07/23 01:39:45;;;;;;;16.30;6.28;;;;;;;20.39;57.00;100721.13;5034766;28;20049;-44
2023/07/23 01:42:13;;;;;;;23.08;6.82;;;;;;;20.46;57.29;100724.38;5035636;28;20029;-44
2023/07/23 01:44:39;;;;;;;20.27;6.40;;;;;;;20.20;58.49;100725.47;5035629;28;20028;-48
2023/07/23 01:47:05;;;;;;;20.77;6.07;;;;;;;20.24;57.58;100727.38;5043861;28;20474;-44
2023/07/23 01:49:31;;;;;;;23.23;6.70;;;;;;;20.11;56.26;100719.78;5052823;28;20033;-45
2023/07/23 01:51:58;;;;;;;23.95;6.45;;;;;;;20.13;55.79;100716.78;5053721;28;20127;-45
2023/07/23 01:54:24;;;;;;;17.48;6.70;;;;;;;20.15;56.41;100718.13;5052898;28;20044;-48
2023/07/23 01:56:51;;;;;;;18.33;6.65;;;;;;;20.15;56.62;100712.69;5052165;28;20491;-44
2023/07/23 01:59:17;;;;;;;12.18;5.72;;;;;;;20.51;55.55;100716.22;5053115;28;20029;-45
2023/07/23 02:01:44;;;;;;;21.00;6.75;;;;;;;20.62;55.19;100718.94;5036651;28;20391;-45
2023/07/23 02:04:10;;;;;;;12.48;6.22;;;;;;;20.81;54.51;100718.03;5035186;28;20462;-46
2023/07/23 02:06:37;;;;;;;17.05;6.22;;;;;;;20.71;54.25;100714.53;5035021;28;20389;-47
2023/07/23 02:09:03;;;;;;;24.08;7.78;;;;;;;20.58;54.27;100723.28;5034774;28;20403;-47
2023/07/23 02:11:30;;;;;;;18.42;7.03;;;;;;;20.63;53.48;100717.84;5046256;28;20487;-46
2023/07/23 02:13:56;;;;;;;15.80;6.53;;;;;;;20.97;53.64;100715.28;5054149;28;20028;-45
2023/07/23 02:16:22;;;;;;;16.48;6.18;;;;;;;21.07;52.81;100723.41;5054835;28;20029;-45
2023/07/23 02:18:49;;;;;;;16.23;6.22;;;;;;;21.27;52.76;100715.16;5049003;28;20017;-44
2023/07/23 02:21:15;;;;;;;17.70;6.22;;;;;;;21.48;52.01;100723.22;5033663;28;20018;-45
2023/07/23 02:23:44;;;;;;;12.80;6.13;;;;;;;21.70;51.18;100720.88;5038888;28;20056;-44
2023/07/23 02:26:11;;;;;;;20.67;6.07;;;;;;;21.98;50.78;100726.69;5034949;28;20040;-44
2023/07/23 02:28:43;;;;;;;15.25;6.50;;;;;;;21.77;50.07;100718.69;5045727;28;20475;-45
2023/07/23 02:31:10;;;;;;;14.35;6.00;;;;;;;21.14;52.36;100723.09;5054052;28;20459;-45
2023/07/23 02:33:36;;;;;;;14.10;5.75;;;;;;;21.35;52.44;100730.91;5054048;28;20043;-46
2023/07/23 02:36:02;;;;;;;14.15;5.80;;;;;;;20.99;53.26;100729.44;5045759;28;20387;-44
2023/07/23 02:38:29;;;;;;;18.15;6.68;;;;;;;21.06;52.97;100719.88;5037901;28;20103;-45
2023/07/23 02:40:56;;;;;;;19.75;6.53;;;;;;;20.83;54.16;100726.75;5037106;28;20036;-45
2023/07/23 02:43:23;;;;;;;17.27;7.78;;;;;;;20.33;56.33;100724.13;5034039;28;20472;-45
2023/07/23 02:45:49;;;;;;;16.85;6.43;;;;;;;20.13;57.57;100727.66;5047897;28;20074;-47
2023/07/23 02:48:15;;;;;;;20.92;6.38;;;;;;;19.61;59.64;100726.00;5046047;28;20032;-47
2023/07/23 02:50:42;;;;;;;25.55;7.15;;;;;;;19.20;61.60;100733.97;5053008;28;20025;-45
2023/07/23 02:53:08;;;;;;;26.08;7.53;;;;;;;18.80;63.51;100740.03;5037846;28;20026;-45
2023/07/23 02:55:34;;;;;;;34.92;7.72;;;;;;;18.06;66.54;100741.66;5033856;28;20468;-44
2023/07/23 02:58:03;;;;;;;31.17;9.60;;;;;;;17.86;67.39;100749.59;5033313;28;20025;-44
2023/07/23 03:00:30;;;;;;;28.70;10.55;;;;;;;17.93;67.54;100739.38;5033393;28;20032;-45
2023/07/23 03:02:57;;;;;;;27.02;11.82;;;;;;;17.67;68.13;100733.69;5047648;28;20037;-44
2023/07/23 03:05:24;;;;;;;32.05;11.68;;;;;;;17.65;68.21;100733.13;5053543;28;20041;-44
2023/07/23 03:07:53;;;;;;;25.98;9.90;;;;;;;17.25;70.38;100728.09;5052894;28;20045;-44
2023/07/23 03:10:19;;;;;;;22.02;8.48;;;;;;;17.23;70.60;100729.44;5053574;28;20539;-45
2023/07/23 03:12:45;;;;;;;35.40;9.68;;;;;;;17.03;71.73;100729.97;5050461;28;20518;-44
2023/07/23 03:15:11;;;;;;;26.33;9.27;;;;;;;17.04;71.86;100729.72;5033256;28;20368;-44
2023/07/23 03:17:38;;;;;;;21.20;7.57;;;;;;;16.69;73.03;100734.63;5032934;28;20471;-44
2023/07/23 03:20:04;;;;;;;24.30;9.15;;;;;;;16.55;73.63;100731.50;5053130;28;20032;-44
2023/07/23 03:22:31;;;;;;;25.73;9.15;;;;;;;16.49;74.51;100729.75;5052964;28;20383;-44
2023/07/23 03:24:57;;;;;;;24.42;8.60;;;;;;;16.57;74.31;100738.25;5053207;28;20021;-45
2023/07/23 03:27:23;;;;;;;29.45;8.73;;;;;;;16.48;74.78;100731.63;5052846;28;20047;-45
2023/07/23 03:29:49;;;;;;;25.50;8.48;;;;;;;16.43;75.10;100730.75;5053040;28;20031;-44
2023/07/23 03:32:16;;;;;;;31.52;9.80;;;;;;;16.22;76.41;100740.44;5052881;28;20095;-45
2023/07/23 03:34:42;;;;;;;30.55;8.77;;;;;;;16.26;76.61;100742.38;5052909;28;20024;-44
2023/07/23 03:37:08;;;;;;;26.55;9.85;;;;;;;16.24;77.11;100741.00;5051835;28;20033;-46
2023/07/23 03:39:37;;;;;;;27.98;8.77;;;;;;;16.05;77.70;100730.44;5051843;28;20029;-44
2023/07/23 03:42:03;;;;;;;30.13;9.25;;;;;;;15.98;78.14;100739.75;5044645;28;20020;-44
2023/07/23 03:44:30;;;;;;;25.27;9.18;;;;;;;16.02;77.85;100739.00;5051199;28;20091;-46
2023/07/23 03:47:11;;;;;;;27.30;8.48;;;;;;;15.98;77.60;100734.34;5051233;28;20033;-45
2023/07/23 03:49:37;;;;;;;30.15;9.55;;;;;;;15.93;78.24;100737.78;5052786;28;20459;-44
2023/07/23 03:52:04;;;;;;;26.00;8.68;;;;;;;15.92;78.40;100744.25;5052322;28;20025;-44
2023/07/23 03:54:31;;;;;;;33.95;8.75;;;;;;;15.95;78.29;100741.06;5050444;28;20471;-43
2023/07/23 03:56:58;;;;;;;35.25;10.02;;;;;;;15.79;78.86;100742.69;5052214;28;20060;-45
2023/07/23 03:59:29;;;;;;;28.13;8.73;;;;;;;15.79;79.53;100737.28;5052579;28;20025;-45
2023/07/23 04:01:56;;;;;;;28.58;9.50;;;;;;;15.88;79.26;100739.56;5052194;28;20471;-44
2023/07/23 04:04:23;;;;;;;23.80;9.18;;;;;;;15.88;79.56;100736.88;5052212;28;20083;-45
2023/07/23 04:06:50;;;;;;;31.45;10.30;;;;;;;15.83;79.59;100743.03;5051748;28;20049;-44
2023/07/23 04:09:16;;;;;;;31.27;9.95;;;;;;;15.83;79.88;100740.31;5052266;28;20386;-44
2023/07/23 04:11:42;;;;;;;34.88;12.75;;;;;;;15.83;79.89;100756.50;5049895;28;20509;-45
2023/07/23 04:14:08;;;;;;;31.88;9.88;;;;;;;15.70;80.29;100746.00;5048753;28;20453;-45
2023/07/23 04:16:35;;;;;;;30.23;9.38;;;;;;;15.74;80.23;100750.69;5052286;28;20029;-47
2023/07/23 04:19:01;;;;;;;22.92;8.98;;;;;;;15.77;80.04;100760.19;5050318;28;20039;-48
2023/07/23 04:21:27;;;;;;;30.77;9.73;;;;;;;15.79;79.79;100763.44;5051903;28;20025;-47
2023/07/23 04:23:55;;;;;;;24.83;8.68;;;;;;;15.61;80.40;100755.53;5049932;28;20033;-47
2023/07/23 04:26:22;;;;;;;23.50;8.48;;;;;;;15.73;79.92;100759.03;5051775;28;20029;-47
2023/07/23 04:28:51;;;;;;;30.42;9.57;;;;;;;15.65;80.20;100759.41;5051532;28;20025;-47
2023/07/23 04:31:18;;;;;;;29.33;8.13;;;;;;;15.72;79.91;100757.38;5027602;28;20124;-46
2023/07/23 04:33:44;;;;;;;28.88;8.25;;;;;;;15.74;79.72;100760.66;5051840;28;20481;-45
2023/07/23 04:36:12;;;;;;;33.78;9.18;;;;;;;15.67;79.99;100774.31;5051922;28;20033;-47
2023/07/23 04:38:40;;;;;;;27.33;9.13;;;;;;;15.58;80.62;100768.41;5051282;28;20456;-45
2023/07/23 04:41:06;;;;;;;30.73;8.80;;;;;;;15.72;80.01;100773.59;5049939;28;20086;-45
2023/07/23 04:43:38;;;;;;;25.95;9.05;;;;;;;15.80;79.65;100786.66;5051537;28;20017;-45
2023/07/23 04:46:04;;;;;;;22.70;8.07;;;;;;;15.87;79.19;100786.50;5051836;28;20115;-44
2023/07/23 04:48:35;;;;;;;32.47;10.88;;;;;;;15.79;79.58;100788.56;5051259;28;20037;-46
2023/07/23 04:51:04;;;;;;;28.27;8.60;;;;;;;15.82;78.81;100789.94;5051392;28;20022;-46
2023/07/23 04:53:30;;;;;;;26.33;8.82;;;;;;;15.81;79.11;100788.31;5051286;28;20025;-48
2023/07/23 04:55:58;;;;;;;22.23;8.70;;;;;;;15.88;78.71;100794.41;5051603;28;20036;-45
2023/07/23 04:58:25;;;;;;;24.85;8.80;;;;;;;15.86;78.56;100792.97;5051206;28;20086;-46
2023/07/23 05:00:53;;;;;;;23.30;8.38;;;;;;;15.93;78.46;100797.16;5051234;28;20024;-47
2023/07/23 05:03:20;;;;;;;28.52;9.07;;;;;;;15.90;79.10;100796.84;5051437;28;20399;-45
2023/07/23 05:05:50;;;;;;;32.33;9.13;;;;;;;15.85;79.31;100797.56;5051545;28;20025;-46
2023/07/23 05:08:19;;;;;;;34.80;9.65;;;;;;;16.00;79.14;100800.53;5051186;28;20522;-45
2023/07/23 05:10:46;;;;;;;20.35;8.18;;;;;;;16.06;78.73;100802.28;5051286;28;20021;-46
2023/07/23 05:13:15;;;;;;;23.65;9.27;;;;;;;16.19;78.41;100805.72;5046045;28;20029;-44
2023/07/23 05:15:42;;;;;;;28.65;9.30;;;;;;;16.14;78.32;100802.94;5031522;28;20072;-46
2023/07/23 05:18:08;;;;;;;25.40;9.10;;;;;;;16.13;78.33;100804.00;5031056;28;20034;-45
2023/07/23 05:20:34;;;;;;;24.00;8.70;;;;;;;16.05;79.00;100797.13;5046818;28;20025;-45
2023/07/23 05:23:01;;;;;;;30.50;8.70;;;;;;;16.23;77.93;100796.06;5051165;28;20360;-44
2023/07/23 05:25:27;;;;;;;24.55;8.85;;;;;;;16.09;78.19;100790.97;5051071;28;20441;-45
2023/07/23 05:27:53;;;;;;;31.17;8.90;;;;;;;16.05;78.39;100795.25;5050845;28;20057;-47
2023/07/23 05:30:21;;;;;;;24.35;8.82;;;;;;;16.08;78.46;100792.03;5051353;28;20097;-45
2023/07/23 05:32:48;;;;;;;23.02;7.70;;;;;;;16.11;78.23;100790.75;5051298;28;20437;-46
2023/07/23 05:35:14;;;;;;;25.77;8.70;;;;;;;15.93;79.20;100786.34;5051207;28;20055;-46
2023/07/23 05:37:40;;;;;;;29.33;8.85;;;;;;;15.87;79.53;100783.81;5050912;28;20021;-44
2023/07/23 05:40:07;;;;;;;26.17;9.00;;;;;;;15.80;80.09;100782.09;5051013;28;20037;-44
2023/07/23 05:42:33;;;;;;;25.13;8.02;;;;;;;15.96;78.98;100783.19;5051095;28;20090;-45
2023/07/23 05:45:00;;;;;;;32.65;9.27;;;;;;;15.73;79.85;100780.59;5048746;28;20033;-46
2023/07/23 05:47:26;;;;;;;25.40;7.85;;;;;;;15.80;79.39;100771.28;5049469;28;20483;-45
2023/07/23 05:49:53;;;;;;;36.05;9.73;;;;;;;15.61;80.54;100785.22;5050877;28;20449;-46
2023/07/23 05:52:19;;;;;;;25.98;8.68;;;;;;;15.71;80.14;100788.09;5051076;28;20082;-44
2023/07/23 05:54:45;;;;;;;26.88;8.82;;;;;;;15.74;80.16;100791.16;5050980;28;20028;-44
2023/07/23 05:57:11;;;;;;;26.33;8.07;;;;;;;15.65;81.07;100789.88;5051018;28;20184;-47
2023/07/23 05:59:38;;;;;;;31.05;8.88;;;;;;;15.64;81.11;100790.13;5048679;28;20056;-46
2023/07/23 06:02:04;;;;;;;26.23;8.05;;;;;;;15.65;80.83;100795.28;5049379;28;20064;-46
2023/07/23 06:04:30;;;;;;;28.70;8.65;;;;;;;15.59;81.24;100798.91;5054615;28;20079;-48
2023/07/23 06:06:57;;;;;;;31.40;9.35;;;;;;;15.59;81.14;100796.22;5053909;28;20388;-45
2023/07/23 06:09:23;;;;;;;27.65;8.18;;;;;;;15.71;80.79;100788.09;5054420;28;20383;-48
2023/07/23 06:11:51;;;;;;;24.35;8.65;;;;;;;15.54;81.61;100796.94;5054355;28;20017;-44
2023/07/23 06:14:17;;;;;;;26.38;8.15;;;;;;;15.56;81.70;100797.53;5040234;28;20034;-47
2023/07/23 06:16:43;;;;;;;31.02;9.90;;;;;;;15.55;81.95;100804.00;5034379;28;20393;-44
2023/07/23 06:19:10;;;;;;;25.70;9.00;;;;;;;15.48;82.13;100799.78;5034243;28;20028;-45
2023/07/23 06:21:36;;;;;;;21.73;7.57;;;;;;;15.62;81.75;100808.44;5044711;28;20112;-45
2023/07/23 06:24:02;;;;;;;27.70;8.93;;;;;;;15.59;81.76;100802.44;5054291;28;20031;-45
2023/07/23 06:26:29;;;;;;;28.98;8.23;;;;;;;15.58;81.26;100805.38;5054097;28;20083;-46
2023/07/23 06:28:55;;;;;;;25.75;8.75;;;;;;;15.59;81.27;100801.63;5053873;28;20030;-44
2023/07/23 06:31:21;;;;;;;23.90;8.25;;;;;;;15.52;81.71;100809.84;5054182;28;20066;-45
2023/07/23 06:33:47;;;;;;;31.40;9.15;;;;;;;15.34;82.83;100811.91;5054157;28;20036;-44
2023/07/23 06:36:15;;;;;;;28.88;8.73;;;;;;;15.30;83.40;100816.94;5052745;28;20036;-46
2023/07/23 06:38:41;;;;;;;32.00;9.27;;;;;;;15.33;83.21;100808.41;5053640;28;20037;-44
2023/07/23 06:41:07;;;;;;;32.30;8.38;;;;;;;15.36;83.20;100826.78;5053723;28;20036;-44
2023/07/23 06:43:33;;;;;;;26.10;8.18;;;;;;;15.35;82.83;100829.72;5052144;28;20083;-46
2023/07/23 06:46:00;;;;;;;36.00;9.45;;;;;;;15.35;83.18;100833.25;5053714;28;20033;-45
2023/07/23 06:48:28;;;;;;;29.58;8.35;;;;;;;15.38;82.78;100827.38;5051286;28;20053;-44
2023/07/23 06:50:58;;;;;;;32.95;8.35;;;;;;;15.41;82.63;100824.19;5049479;28;20463;-44
2023/07/23 06:53:24;;;;;;;26.05;8.35;;;;;;;15.50;81.97;100824.66;5053679;28;20082;-44
2023/07/23 06:56:12;;;;;;;29.67;8.35;;;;;;;15.48;82.11;100827.56;5053575;28;20052;-45
2023/07/23 06:58:39;;;;;;;28.00;8.93;;;;;;;15.35;82.45;100819.75;5053430;28;20028;-45
2023/07/23 07:01:07;;;;;;;25.92;9.02;;;;;;;15.29;82.96;100818.00;5053260;28;20025;-45
2023/07/23 07:03:34;;;;;;;29.75;7.78;;;;;;;15.19;83.50;100818.59;5053418;28;20087;-45
2023/07/23 07:06:01;;;;;;;30.10;8.00;;;;;;;15.16;83.95;100816.41;5053170;28;20032;-45
2023/07/23 07:08:28;;;;;;;27.05;8.27;;;;;;;15.20;83.62;100817.53;5052927;28;20084;-48
2023/07/23 07:11:03;;;;;;;32.47;8.90;;;;;;;15.17;84.41;100803.75;5053072;28;20032;-45
2023/07/23 07:13:31;;;;;;;28.70;8.48;;;;;;;15.19;83.83;100801.59;5048316;28;20025;-45
2023/07/23 07:15:57;;;;;;;22.77;7.13;;;;;;;15.17;84.15;100809.13;5053263;28;20033;-45
2023/07/23 07:18:25;;;;;;;30.05;8.60;;;;;;;15.18;83.74;100808.88;5053001;28;20029;-48
2023/07/23 07:21:00;;;;;;;26.83;8.77;;;;;;;15.10;84.23;100803.03;5053098;28;20032;-47
2023/07/23 07:23:30;;;;;;;29.27;9.07;;;;;;;15.14;83.68;100806.88;5053300;28;20075;-46
2023/07/23 07:25:58;;;;;;;27.30;8.45;;;;;;;15.18;83.73;100813.47;5053205;28;20029;-47
2023/07/23 07:28:25;;;;;;;35.53;8.95;;;;;;;15.16;83.92;100813.72;5052733;28;20033;-48
2023/07/23 07:30:57;;;;;;;26.15;8.40;;;;;;;15.09;84.26;100807.59;5050479;28;20438;-47
2023/07/23 07:33:23;;;;;;;27.27;8.68;;;;;;;15.07;84.85;100806.22;5052922;28;20483;-48
2023/07/23 07:35:53;;;;;;;23.88;7.72;;;;;;;15.17;84.73;100811.81;5052691;28;20070;-47
2023/07/23 07:38:19;;;;;;;30.77;9.13;;;;;;;15.14;84.52;100812.28;5050196;28;20036;-45
2023/07/23 07:40:48;;;;;;;29.17;9.30;;;;;;;15.21;84.29;100807.56;5052704;28;20040;-45
2023/07/23 07:43:14;;;;;;;27.45;8.15;;;;;;;15.17;84.23;100811.81;5052371;28;20028;-46
2023/07/23 07:45:41;;;;;;;27.27;9.23;;;;;;;15.12;84.50;100817.91;5058639;23;20067;-46
2023/07/23 07:48:09;;;;;;;29.67;9.25;;;;;;;15.11;84.76;100810.09;5052101;28;20041;-45
2023/07/23 07:50:35;;;;;;;25.42;8.45;;;;;;;15.13;84.76;100810.66;5052476;28;20063;-47
2023/07/23 07:53:01;;;;;;;35.08;9.27;;;;;;;15.09;85.14;100807.59;5052565;28;20067;-45
2023/07/23 07:55:27;;;;;;;29.23;8.63;;;;;;;15.05;85.42;100807.28;5052464;28;20036;-47
2023/07/23 07:57:54;;;;;;;34.05;9.65;;;;;;;15.12;84.99;100809.00;5052360;28;20037;-46
2023/07/23 08:00:20;;;;;;;28.38;8.70;;;;;;;15.17;84.91;100803.75;5052039;28;20028;-48
2023/07/23 08:02:47;;;;;;;32.83;8.93;;;;;;;15.05;85.22;100803.75;5050482;28;20144;-47
2023/07/23 08:05:14;;;;;;;29.52;8.52;;;;;;;15.12;85.16;100803.63;5044247;28;20094;-46
2023/07/23 08:07:43;;;;;;;28.17;8.25;;;;;;;15.09;85.07;100806.78;5052080;28;20491;-45
2023/07/23 08:10:10;;;;;;;28.48;8.43;;;;;;;15.03;85.43;100806.66;5051967;28;20044;-48
2023/07/23 08:12:38;;;;;;;35.42;8.95;;;;;;;15.05;84.98;100804.56;5051836;28;20395;-44
2023/07/23 08:15:05;;;;;;;26.98;8.70;;;;;;;15.04;85.38;100799.41;5032230;28;20026;-45
2023/07/23 08:17:34;;;;;;;37.03;8.95;;;;;;;15.02;85.50;100798.81;5034789;28;20029;-45
2023/07/23 08:20:00;;;;;;;27.88;9.13;;;;;;;15.00;85.21;100799.06;5052076;28;20013;-44
2023/07/23 08:22:27;;;;;;;33.08;9.25;;;;;;;14.93;86.01;100802.94;5051928;28;20041;-44
2023/07/23 08:24:54;;;;;;;30.50;8.88;;;;;;;14.90;86.18;100795.31;5051530;28;20423;-47
2023/07/23 08:27:23;;;;;;;30.63;9.52;;;;;;;15.06;85.41;100800.00;5050885;28;20033;-44
2023/07/23 08:29:49;;;;;;;25.60;8.23;;;;;;;14.93;85.55;100801.03;5047716;28;20051;-45
2023/07/23 08:32:17;;;;;;;25.90;8.52;;;;;;;14.89;85.75;100796.38;5051790;28;20059;-45
2023/07/23 08:34:44;;;;;;;30.98;9.50;;;;;;;14.97;85.46;100793.31;5052037;28;20086;-45
2023/07/23 08:37:11;;;;;;;26.08;8.30;;;;;;;14.93;85.81;100797.53;5050615;28;20029;-45
2023/07/23 08:39:37;;;;;;;30.60;9.43;;;;;;;14.84;85.99;100798.97;5051743;28;20021;-45
2023/07/23 08:42:07;;;;;;;28.65;8.77;;;;;;;14.79;86.25;100799.66;5051609;28;20033;-48
2023/07/23 08:44:53;;;;;;;32.35;8.93;;;;;;;14.75;86.70;100793.91;5051508;28;20130;-45
2023/07/23 08:47:22;;;;;;;33.03;8.52;;;;;;;14.83;86.12;100794.63;5051219;28;20103;-49
2023/07/23 08:49:51;;;;;;;27.23;8.98;;;;;;;14.75;86.91;100793.09;5068359;28;20036;-45
2023/07/23 08:52:20;;;;;;;31.58;8.80;;;;;;;14.74;86.90;100796.84;5071571;28;20020;-45
2023/07/23 08:54:47;;;;;;;28.10;8.65;;;;;;;14.77;86.77;100799.91;5071569;28;20034;-48
2023/07/23 08:57:14;;;;;;;30.60;9.13;;;;;;;14.79;86.91;100792.41;5050649;28;20581;-48
2023/07/23 08:59:41;;;;;;;30.05;8.02;;;;;;;14.79;87.12;100786.19;5051527;28;20551;-48
2023/07/23 09:02:12;;;;;;;37.15;9.20;;;;;;;14.72;86.95;100786.31;5051379;28;20025;-49
2023/07/23 09:04:38;;;;;;;26.77;8.70;;;;;;;14.75;86.93;100790.41;5051630;28;20024;-46
2023/07/23 09:07:12;;;;;;;32.05;8.73;;;;;;;14.84;86.32;100789.00;5050827;28;20031;-46
2023/07/23 09:09:39;;;;;;;35.85;8.75;;;;;;;14.81;86.09;100784.06;5050207;28;20064;-47
2023/07/23 09:12:05;;;;;;;35.25;9.30;;;;;;;14.73;86.54;100792.53;5051390;28;20060;-45
2023/07/23 09:14:43;;;;;;;33.33;9.38;;;;;;;14.72;86.55;100790.88;5035417;28;20033;-45
2023/07/23 09:17:20;;;;;;;44.08;9.52;;;;;;;14.64;87.20;100786.66;5030990;28;20467;-44
2023/07/23 09:19:46;;;;;;;32.85;9.38;;;;;;;14.69;86.88;100789.47;5050814;28;20041;-48
2023/07/23 09:22:17;;;;;;;31.75;9.25;;;;;;;14.67;86.95;100790.78;5051361;28;20032;-48
2023/07/23 09:24:44;;;;;;;34.75;8.27;;;;;;;14.70;86.72;100785.72;5051426;28;20044;-45
2023/07/23 09:27:11;;;;;;;45.92;10.55;;;;;;;14.58;88.01;100789.47;5049513;28;20037;-47
2023/07/23 09:29:41;;;;;;;27.35;9.43;;;;;;;14.54;88.27;100789.09;5051212;28;20025;-45
2023/07/23 09:32:25;;;;;;;22.95;8.02;;;;;;;14.55;88.35;100790.75;5051269;28;20037;-48
2023/07/23 09:34:53;;;;;;;28.92;8.95;;;;;;;14.61;88.25;100783.63;5050479;28;20111;-46
2023/07/23 09:37:19;;;;;;;38.42;9.45;;;;;;;14.68;87.85;100778.94;5051855;28;20047;-46
2023/07/23 09:39:45;;;;;;;31.25;8.02;;;;;;;14.64;88.07;100789.34;5055306;28;20029;-48
2023/07/23 09:42:12;;;;;;;35.38;9.38;;;;;;;14.67;87.96;100788.06;5055054;28;20043;-45
2023/07/23 09:44:42;;;;;;;28.92;8.85;;;;;;;14.58;88.36;100790.28;5054722;28;20822;-47
2023/07/23 09:47:08;;;;;;;28.20;10.05;;;;;;;14.64;87.88;100793.91;5034589;28;20056;-47
2023/07/23 09:49:37;;;;;;;34.63;8.77;;;;;;;14.60;88.44;100790.03;5038827;28;20090;-46
2023/07/23 09:52:09;;;;;;;28.88;8.25;;;;;;;14.65;88.15;100790.16;5026899;28;20108;-48
2023/07/23 09:54:36;;;;;;;26.55;8.13;;;;;;;14.65;88.02;100801.75;5035033;28;20079;-45
2023/07/23 09:57:07;;;;;;;33.75;10.15;;;;;;;14.55;88.79;100803.38;5034521;28;20057;-47
2023/07/23 09:59:33;;;;;;;34.60;9.38;;;;;;;14.55;88.80;100806.06;5053788;28;20403;-48
2023/07/23 10:02:00;;;;;;;30.83;8.57;;;;;;;14.57;88.31;100796.72;5054627;28;20025;-48
2023/07/23 10:04:30;;;;;;;33.85;8.98;;;;;;;14.56;88.68;100802.34;5054449;28;20128;-49
2023/07/23 10:06:57;;;;;;;26.17;8.32;;;;;;;14.53;88.80;100807.13;5054028;28;20033;-48
2023/07/23 10:09:25;;;;;;;40.00;9.70;;;;;;;14.44;89.44;100813.09;5053495;28;20041;-49
2023/07/23 10:11:52;;;;;;;33.97;9.23;;;;;;;14.52;89.04;100810.06;5054620;28;20056;-47
2023/07/23 10:14:18;;;;;;;33.15;8.82;;;;;;;14.50;89.29;100818.41;5039970;28;20488;-46
2023/07/23 10:16:46;;;;;;;27.30;8.88;;;;;;;14.60;88.57;100811.59;5034341;28;20464;-47
2023/07/23 10:19:14;;;;;;;36.78;8.88;;;;;;;14.60;88.95;100814.28;5034170;28;20091;-44
2023/07/23 10:21:45;;;;;;;29.90;9.25;;;;;;;14.67;88.52;100809.63;5034486;28;20127;-48
2023/07/23 10:24:12;;;;;;;27.17;8.90;;;;;;;14.65;88.88;100806.31;5044218;28;20025;-49
2023/07/23 10:26:43;;;;;;;34.25;9.15;;;;;;;14.62;88.64;100812.19;5052548;28;20083;-46
2023/07/23 10:29:11;;;;;;;27.15;8.07;;;;;;;14.61;88.99;100807.88;5043173;28;20067;-46
2023/07/23 10:31:38;;;;;;;41.40;10.23;;;;;;;14.67;88.91;100805.06;5054123;28;20056;-45
2023/07/23 10:34:23;;;;;;;23.63;8.52;;;;;;;14.79;88.55;100808.56;5053936;28;20029;-47
2023/07/23 10:37:13;;;;;;;40.65;8.65;;;;;;;14.70;88.85;100809.13;5053726;28;20028;-47
2023/07/23 10:39:42;;;;;;;34.50;9.73;;;;;;;14.64;89.37;100807.38;5053900;28;20021;-47
2023/07/23 10:42:08;;;;;;;29.33;9.38;;;;;;;14.66;89.29;100799.91;5053787;28;20107;-46
2023/07/23 10:44:39;;;;;;;30.20;9.20;;;;;;;14.73;89.01;100801.41;5038305;28;20161;-48
2023/07/23 10:47:31;;;;;;;30.45;8.90;;;;;;;14.91;88.22;100805.88;5053490;28;20043;-48
2023/07/23 10:50:12;;;;;;;34.47;9.75;;;;;;;14.75;88.96;100809.25;5053562;28;20100;-46
2023/07/23 10:52:38;;;;;;;30.67;8.73;;;;;;;14.83;88.22;100808.94;5053580;28;20028;-48
2023/07/23 10:55:05;;;;;;;30.20;9.38;;;;;;;14.85;87.94;100804.09;5053535;28;20395;-46
2023/07/23 10:57:31;;;;;;;37.63;9.32;;;;;;;14.91;87.63;100805.88;5053266;28;20117;-45
2023/07/23 10:59:58;;;;;;;29.95;8.90;;;;;;;14.94;87.14;100808.09;5053542;28;20035;-45
2023/07/23 11:02:25;;;;;;;35.45;9.80;;;;;;;14.96;86.92;100811.38;5053573;28;20025;-49
2023/07/23 11:04:55;;;;;;;26.00;8.70;;;;;;;15.01;86.77;100819.56;5053592;28;20025;-48
2023/07/23 11:07:31;;;;;;;32.30;8.68;;;;;;;14.98;87.14;100816.50;5052179;28;20471;-46
2023/07/23 11:10:18;;;;;;;27.23;8.05;;;;;;;14.84;87.45;100815.94;5053731;28;20063;-46
2023/07/23 11:12:44;;;;;;;38.03;10.07;;;;;;;14.79;87.93;100810.44;5051949;28;20364;-49
2023/07/23 11:15:15;;;;;;;28.30;9.45;;;;;;;14.81;87.68;100811.00;5037091;28;20479;-45
2023/07/23 11:17:41;;;;;;;26.42;8.13;;;;;;;14.81;87.60;100805.63;5052260;28;20036;-47
2023/07/23 11:20:09;;;;;;;35.92;9.90;;;;;;;14.84;87.50;100815.94;5053238;28;20024;-47